Time;durP1;ratioP1;P1;durP2;ratioP2;P2;SDS_P1;SDS_P2;PMS_P1;PMS_P2;Temp;Humidity;BMP_temperature;BMP_pressure;BME280_temperature;BME280_humidity;BME280_pressure;Samples;Min_cycle;Max_cycle;Signal;HPM_P1;HPM_P2
2022/10/30 00:00:35;;;;;;;7.95;4.93;;;16.20;99.90;;;;;;5076912;28;20029;-40
2022/10/30 00:03:00;;;;;;;8.75;5.15;;;16.20;99.90;;;;;;5078465;28;20023;-39
2022/10/30 00:05:26;;;;;;;7.18;5.32;;;16.10;99.90;;;;;;5072774;28;20111;-37
2022/10/30 00:07:55;;;;;;;7.70;5.13;;;16.10;99.90;;;;;;5077452;28;20645;-41
2022/10/30 00:10:20;;;;;;;10.52;5.18;;;16.10;99.90;;;;;;5077068;28;20472;-38
2022/10/30 00:12:46;;;;;;;10.57;5.28;;;16.00;99.90;;;;;;5078353;28;20039;-40
2022/10/30 00:15:12;;;;;;;9.43;5.35;;;16.00;99.90;;;;;;5082314;28;20067;-35
2022/10/30 00:17:37;;;;;;;9.82;5.80;;;16.00;99.90;;;;;;5075626;28;20028;-40
2022/10/30 00:20:04;;;;;;;8.30;5.60;;;15.90;99.90;;;;;;5067632;28;20426;-41
2022/10/30 00:22:29;;;;;;;8.82;5.43;;;16.00;99.90;;;;;;5072839;28;20093;-39
2022/10/30 00:24:55;;;;;;;9.13;5.18;;;15.90;99.90;;;;;;5066852;28;20016;-40
2022/10/30 00:27:20;;;;;;;9.68;5.60;;;15.80;99.90;;;;;;5071288;28;20024;-39
2022/10/30 00:29:46;;;;;;;7.65;5.28;;;15.80;99.90;;;;;;5069317;28;20537;-40
2022/10/30 00:32:12;;;;;;;9.07;5.32;;;15.80;99.90;;;;;;5069937;28;20087;-40
2022/10/30 00:34:37;;;;;;;8.23;5.32;;;15.70;99.90;;;;;;5085184;28;20020;-37
2022/10/30 00:37:06;;;;;;;10.88;5.63;;;15.80;99.90;;;;;;5085273;28;20031;-40
2022/10/30 00:39:34;;;;;;;9.10;5.43;;;15.70;99.90;;;;;;5070684;28;20515;-39
2022/10/30 00:42:00;;;;;;;8.38;5.07;;;15.70;99.90;;;;;;5074759;28;20047;-40
2022/10/30 00:44:34;;;;;;;8.60;5.95;;;15.70;99.90;;;;;;5084426;28;20708;-39
2022/10/30 00:47:07;;;;;;;6.97;5.30;;;15.70;99.90;;;;;;5075303;28;20031;-36
2022/10/30 00:49:37;;;;;;;9.02;5.47;;;15.70;99.90;;;;;;5081587;28;20055;-39
2022/10/30 00:52:05;;;;;;;10.32;5.57;;;15.70;99.90;;;;;;5077015;28;20029;-39
2022/10/30 00:54:33;;;;;;;9.10;6.13;;;15.60;99.90;;;;;;5082855;28;20016;-39
2022/10/30 00:57:00;;;;;;;11.73;6.13;;;15.60;99.90;;;;;;5078971;28;20460;-39
2022/10/30 00:59:29;;;;;;;12.02;5.93;;;15.60;99.90;;;;;;5081907;28;20031;-37
2022/10/30 01:01:55;;;;;;;10.68;5.57;;;15.60;99.90;;;;;;5079817;28;20023;-36
2022/10/30 01:04:22;;;;;;;7.03;5.22;;;15.60;99.90;;;;;;5079360;28;20574;-39
2022/10/30 01:06:51;;;;;;;9.02;5.70;;;15.50;99.90;;;;;;5083347;28;20473;-41
2022/10/30 01:09:18;;;;;;;12.90;5.85;;;15.50;99.90;;;;;;5077687;28;20153;-39
2022/10/30 01:11:44;;;;;;;11.10;5.47;;;15.50;99.90;;;;;;5082224;28;20028;-38
2022/10/30 01:14:14;;;;;;;11.98;5.57;;;15.50;99.90;;;;;;5081841;28;20031;-40
2022/10/30 01:17:05;;;;;;;6.80;4.97;;;15.40;99.90;;;;;;5083367;28;20020;-40
2022/10/30 01:19:47;;;;;;;8.80;5.53;;;15.40;99.90;;;;;;5083916;28;20502;-39
2022/10/30 01:22:19;;;;;;;9.40;5.30;;;15.40;99.90;;;;;;5082495;28;20032;-41
2022/10/30 01:25:14;;;;;;;9.07;5.82;;;15.30;99.90;;;;;;5080521;28;20063;-40
2022/10/30 01:28:11;;;;;;;8.20;5.63;;;15.30;99.90;;;;;;5076288;28;20040;-40
2022/10/30 01:31:10;;;;;;;10.25;5.60;;;15.30;99.90;;;;;;5073037;28;20039;-39
2022/10/30 01:33:44;;;;;;;7.00;5.32;;;15.20;99.90;;;;;;5061663;28;20534;-40
2022/10/30 01:36:20;;;;;;;8.30;5.03;;;15.20;99.90;;;;;;5083158;28;20019;-38
2022/10/30 01:38:56;;;;;;;12.68;5.70;;;15.10;99.90;;;;;;5078982;28;20036;-39
2022/10/30 01:41:22;;;;;;;10.45;5.82;;;15.10;99.90;;;;;;5083516;28;20035;-39
2022/10/30 01:43:51;;;;;;;10.10;5.60;;;15.10;99.90;;;;;;5075340;28;20028;-39
2022/10/30 01:46:26;;;;;;;7.68;5.72;;;15.10;99.90;;;;;;5079106;28;20028;-39
2022/10/30 01:48:52;;;;;;;9.30;5.88;;;15.10;99.90;;;;;;5077205;28;20103;-39
2022/10/30 01:51:35;;;;;;;8.38;5.72;;;15.10;99.90;;;;;;5082596;28;20157;-40
2022/10/30 01:54:01;;;;;;;10.50;6.18;;;15.10;99.90;;;;;;5077500;28;20020;-40
2022/10/30 01:56:46;;;;;;;8.38;5.43;;;15.00;99.90;;;;;;5083204;28;20027;-40
2022/10/30 01:59:16;;;;;;;8.88;5.68;;;15.00;99.90;;;;;;5080515;28;20032;-40
2022/10/30 02:01:42;;;;;;;10.45;5.97;;;15.00;99.90;;;;;;5083825;28;20126;-39
2022/10/30 02:04:11;;;;;;;13.45;6.63;;;15.00;99.90;;;;;;5080292;28;20027;-40
2022/10/30 02:06:37;;;;;;;8.82;5.53;;;15.00;99.90;;;;;;5083626;28;20119;-39
2022/10/30 02:09:03;;;;;;;7.53;5.50;;;15.00;99.90;;;;;;5082245;28;20062;-41
2022/10/30 02:11:31;;;;;;;7.75;5.60;;;15.00;99.90;;;;;;5082491;28;20020;-40
2022/10/30 02:13:59;;;;;;;7.25;5.15;;;14.90;99.90;;;;;;5081197;28;20071;-40
2022/10/30 02:16:26;;;;;;;8.13;5.57;;;14.90;99.90;;;;;;5078966;28;20020;-39
2022/10/30 02:18:51;;;;;;;8.38;5.97;;;14.90;99.90;;;;;;5081074;28;20035;-40
2022/10/30 02:21:17;;;;;;;11.35;6.25;;;14.90;99.90;;;;;;5079855;28;20032;-40
2022/10/30 02:23:43;;;;;;;10.75;5.82;;;14.90;99.90;;;;;;5084144;28;20028;-39
2022/10/30 02:26:08;;;;;;;8.27;5.93;;;14.90;99.90;;;;;;5078826;28;20448;-41
2022/10/30 02:28:34;;;;;;;7.63;6.00;;;14.90;99.90;;;;;;5083127;28;20028;-39
2022/10/30 02:30:59;;;;;;;11.82;6.07;;;14.90;99.90;;;;;;5079749;28;20097;-40
2022/10/30 02:33:25;;;;;;;10.52;6.15;;;14.90;99.90;;;;;;5068369;28;20059;-40
2022/10/30 02:35:52;;;;;;;8.90;6.35;;;14.80;99.90;;;;;;5064847;28;20020;-40
2022/10/30 02:38:17;;;;;;;10.80;6.05;;;14.80;99.90;;;;;;5066563;28;20036;-40
2022/10/30 02:40:43;;;;;;;10.45;6.20;;;14.80;99.90;;;;;;5072997;28;20024;-39
2022/10/30 02:43:08;;;;;;;11.63;6.20;;;14.80;99.90;;;;;;5080976;28;20127;-40
2022/10/30 02:45:34;;;;;;;10.73;6.70;;;14.80;99.90;;;;;;5068236;28;20032;-38
2022/10/30 02:48:00;;;;;;;10.77;6.65;;;14.80;99.90;;;;;;5082465;28;20032;-40
2022/10/30 02:50:28;;;;;;;8.25;5.97;;;14.80;99.90;;;;;;5072004;28;20043;-39
2022/10/30 02:52:54;;;;;;;11.48;6.65;;;14.80;99.90;;;;;;5086434;28;20044;-39
2022/10/30 02:55:22;;;;;;;10.35;6.45;;;14.80;99.90;;;;;;5073159;28;20054;-40
2022/10/30 02:57:48;;;;;;;9.65;6.13;;;14.80;99.90;;;;;;5086973;28;20599;-41
2022/10/30 03:00:14;;;;;;;9.43;6.72;;;14.80;99.90;;;;;;5072483;28;20025;-37
2022/10/30 03:02:39;;;;;;;10.25;6.03;;;14.80;99.90;;;;;;5086258;28;20028;-38
2022/10/30 03:05:05;;;;;;;7.72;6.22;;;14.80;99.90;;;;;;5074620;28;20016;-37
2022/10/30 03:07:31;;;;;;;10.20;6.65;;;14.80;99.90;;;;;;5084454;28;20558;-39
2022/10/30 03:09:56;;;;;;;11.43;6.25;;;14.80;99.90;;;;;;5076490;28;20052;-41
2022/10/30 03:12:22;;;;;;;8.07;6.13;;;14.70;99.90;;;;;;5071456;28;20218;-38
2022/10/30 03:14:48;;;;;;;8.55;5.82;;;14.70;99.90;;;;;;5077589;28;20016;-39
2022/10/30 03:17:19;;;;;;;8.50;5.70;;;14.70;99.90;;;;;;5076394;28;20544;-40
2022/10/30 03:19:45;;;;;;;8.27;5.80;;;14.70;99.90;;;;;;5086829;28;20544;-37
2022/10/30 03:22:13;;;;;;;8.80;5.30;;;14.70;99.90;;;;;;5076124;28;20528;-38
2022/10/30 03:24:39;;;;;;;9.48;6.50;;;14.70;99.90;;;;;;5077234;28;20021;-38
2022/10/30 03:27:05;;;;;;;8.68;6.05;;;14.60;99.90;;;;;;5070836;28;20023;-40
2022/10/30 03:29:31;;;;;;;8.35;5.78;;;14.70;99.90;;;;;;5076445;28;20027;-40
2022/10/30 03:31:56;;;;;;;9.77;5.95;;;14.60;99.90;;;;;;5069920;28;20048;-39
2022/10/30 03:34:22;;;;;;;12.13;6.43;;;14.60;99.90;;;;;;5076043;28;20024;-39
2022/10/30 03:36:47;;;;;;;9.18;5.90;;;14.60;99.90;;;;;;5068437;28;20039;-39
2022/10/30 03:39:13;;;;;;;9.57;6.20;;;14.60;99.90;;;;;;5074861;28;20027;-37
2022/10/30 03:41:38;;;;;;;8.60;6.28;;;14.60;99.90;;;;;;5070730;28;20019;-39
2022/10/30 03:44:04;;;;;;;8.95;6.60;;;14.60;99.90;;;;;;5078243;28;20407;-36
2022/10/30 03:46:30;;;;;;;9.10;6.47;;;14.60;99.90;;;;;;5070699;28;20713;-42
2022/10/30 03:48:55;;;;;;;8.15;6.28;;;14.50;99.90;;;;;;5072548;28;20391;-39
2022/10/30 03:51:21;;;;;;;8.38;6.10;;;14.50;99.90;;;;;;5069600;28;20033;-39
2022/10/30 03:53:46;;;;;;;9.02;6.22;;;14.50;99.90;;;;;;5070143;28;20031;-39
2022/10/30 03:56:12;;;;;;;9.73;6.03;;;14.50;99.90;;;;;;5072307;28;20037;-40
2022/10/30 03:58:38;;;;;;;9.38;5.90;;;14.50;99.90;;;;;;5069253;28;20517;-39
2022/10/30 04:01:07;;;;;;;9.52;5.93;;;14.40;99.90;;;;;;5072654;28;20024;-39
2022/10/30 04:03:33;;;;;;;11.00;6.28;;;14.40;99.90;;;;;;5068796;28;20028;-39
2022/10/30 04:05:58;;;;;;;8.85;6.38;;;14.40;99.90;;;;;;5073015;28;20036;-42
2022/10/30 04:08:24;;;;;;;8.88;6.63;;;14.40;99.90;;;;;;5068928;28;20573;-38
2022/10/30 04:10:49;;;;;;;10.82;6.63;;;14.40;99.90;;;;;;5071424;28;20082;-36
2022/10/30 04:13:17;;;;;;;10.50;6.50;;;14.40;99.90;;;;;;5072627;28;20039;-38
2022/10/30 04:15:43;;;;;;;11.48;6.28;;;14.40;99.90;;;;;;5071156;28;20025;-35
2022/10/30 04:18:10;;;;;;;9.88;6.40;;;14.40;99.90;;;;;;5071412;28;20530;-35
2022/10/30 04:20:36;;;;;;;10.20;6.10;;;14.40;99.90;;;;;;5085389;28;20032;-39
2022/10/30 04:23:05;;;;;;;10.23;6.40;;;14.40;99.90;;;;;;5077657;28;20029;-39
2022/10/30 04:25:33;;;;;;;8.45;5.80;;;14.40;99.90;;;;;;5071566;28;20082;-40
2022/10/30 04:27:58;;;;;;;8.25;5.85;;;14.40;99.90;;;;;;5072268;28;20104;-40
2022/10/30 04:30:26;;;;;;;12.50;6.90;;;14.40;99.90;;;;;;5070642;28;20016;-36
2022/10/30 04:32:54;;;;;;;8.00;5.88;;;14.40;99.90;;;;;;5064355;28;20056;-40
2022/10/30 04:35:21;;;;;;;10.23;6.00;;;14.30;99.90;;;;;;5070780;28;20024;-38
2022/10/30 04:37:59;;;;;;;10.68;6.32;;;14.40;99.90;;;;;;5066563;28;20361;-39
2022/10/30 04:40:27;;;;;;;10.23;6.30;;;14.30;99.90;;;;;;5069694;28;20044;-40
2022/10/30 04:42:53;;;;;;;11.85;6.55;;;14.30;99.90;;;;;;5067011;28;20020;-38
2022/10/30 04:45:19;;;;;;;10.65;6.40;;;14.20;99.90;;;;;;5079657;28;20035;-40
2022/10/30 04:47:45;;;;;;;10.00;6.18;;;14.20;99.90;;;;;;5085577;28;20020;-42
2022/10/30 04:50:11;;;;;;;9.63;6.07;;;14.10;99.90;;;;;;5069930;28;20032;-39
2022/10/30 04:52:36;;;;;;;8.63;5.60;;;14.10;99.90;;;;;;5070251;28;20040;-37
2022/10/30 04:55:02;;;;;;;8.70;6.10;;;14.10;99.90;;;;;;5068939;28;20039;-39
2022/10/30 04:57:30;;;;;;;8.45;6.25;;;14.10;99.90;;;;;;5069113;28;20032;-38
2022/10/30 04:59:55;;;;;;;10.23;6.40;;;14.10;99.90;;;;;;5067446;28;20087;-40
2022/10/30 05:02:21;;;;;;;10.85;7.70;;;14.10;99.90;;;;;;5067954;28;20515;-40
2022/10/30 05:04:46;;;;;;;11.70;6.70;;;14.10;99.90;;;;;;5068236;28;20088;-40
2022/10/30 05:07:12;;;;;;;7.32;6.05;;;14.10;99.90;;;;;;5072450;28;20804;-40
2022/10/30 05:09:38;;;;;;;11.57;6.63;;;14.10;99.90;;;;;;5074984;28;20016;-40
2022/10/30 05:12:04;;;;;;;13.18;7.22;;;14.10;99.90;;;;;;5070138;28;20028;-40
2022/10/30 05:14:31;;;;;;;9.90;6.43;;;14.00;99.90;;;;;;5063803;28;20028;-35
2022/10/30 05:16:57;;;;;;;12.35;6.22;;;14.00;99.90;;;;;;5070629;28;20028;-38
2022/10/30 05:19:22;;;;;;;10.60;6.35;;;14.00;99.90;;;;;;5064174;28;20030;-40
2022/10/30 05:21:48;;;;;;;8.68;6.30;;;14.00;99.90;;;;;;5078609;28;20031;-39
2022/10/30 05:24:13;;;;;;;12.00;6.80;;;14.00;99.90;;;;;;5063292;28;20460;-39
2022/10/30 05:26:39;;;;;;;8.48;6.22;;;14.00;99.90;;;;;;5077650;28;20020;-39
2022/10/30 05:29:04;;;;;;;8.63;6.40;;;13.90;99.90;;;;;;5083848;28;20502;-40
2022/10/30 05:31:30;;;;;;;10.35;6.00;;;13.90;99.90;;;;;;5081886;28;20032;-40
2022/10/30 05:33:55;;;;;;;10.70;6.10;;;13.90;99.90;;;;;;5083704;28;20048;-38
2022/10/30 05:36:24;;;;;;;9.73;6.28;;;13.90;99.90;;;;;;5081923;28;20054;-39
2022/10/30 05:38:50;;;;;;;7.82;6.40;;;13.90;99.90;;;;;;5083253;28;20761;-38
2022/10/30 05:41:15;;;;;;;10.48;7.03;;;13.90;99.90;;;;;;5080978;28;20031;-38
2022/10/30 05:43:41;;;;;;;8.75;6.82;;;13.90;99.90;;;;;;5069068;28;20025;-39
2022/10/30 05:46:07;;;;;;;9.02;6.70;;;13.90;99.90;;;;;;5067573;28;20169;-40
2022/10/30 05:48:32;;;;;;;8.20;6.43;;;13.90;99.90;;;;;;5066769;28;20012;-40
2022/10/30 05:50:58;;;;;;;12.63;7.60;;;13.90;99.90;;;;;;5064685;28;20044;-39
2022/10/30 05:53:24;;;;;;;10.23;6.72;;;13.90;99.90;;;;;;5077400;28;20024;-41
2022/10/30 05:55:50;;;;;;;8.85;6.13;;;13.90;99.90;;;;;;5063437;28;20116;-39
2022/10/30 05:58:15;;;;;;;12.55;6.93;;;13.90;99.90;;;;;;5078797;28;20055;-39
2022/10/30 06:00:43;;;;;;;8.82;6.78;;;13.90;99.90;;;;;;5076355;28;20016;-37
2022/10/30 06:03:12;;;;;;;10.80;7.70;;;13.90;99.90;;;;;;5077393;28;20032;-39
2022/10/30 06:05:38;;;;;;;11.15;6.80;;;13.80;99.90;;;;;;5062282;28;20651;-45
2022/10/30 06:08:05;;;;;;;10.50;7.35;;;13.80;99.90;;;;;;5076884;28;20081;-39
2022/10/30 06:10:31;;;;;;;9.77;6.50;;;13.80;99.90;;;;;;5062636;28;20032;-40
2022/10/30 06:12:58;;;;;;;9.93;6.80;;;13.80;99.90;;;;;;5072219;28;20052;-40
2022/10/30 06:15:24;;;;;;;13.02;6.90;;;13.80;99.90;;;;;;5080431;28;20107;-39
2022/10/30 06:17:50;;;;;;;9.55;6.68;;;13.80;99.90;;;;;;5072575;28;20149;-40
2022/10/30 06:20:17;;;;;;;12.18;6.70;;;13.80;99.90;;;;;;5082697;28;20043;-39
2022/10/30 06:22:56;;;;;;;11.88;7.05;;;13.80;99.90;;;;;;5079224;28;20890;-39
2022/10/30 06:25:22;;;;;;;12.57;6.93;;;13.80;99.90;;;;;;5083903;28;20024;-39
2022/10/30 06:27:47;;;;;;;11.40;7.18;;;13.70;99.90;;;;;;5070533;28;20028;-40
2022/10/30 06:30:13;;;;;;;8.25;6.28;;;13.70;99.90;;;;;;5087029;28;20024;-42
2022/10/30 06:32:38;;;;;;;9.75;6.80;;;13.70;99.90;;;;;;5085419;28;20086;-40
2022/10/30 06:35:04;;;;;;;10.10;7.13;;;13.60;99.90;;;;;;5075828;28;20135;-40
2022/10/30 06:37:30;;;;;;;8.73;6.18;;;13.60;99.90;;;;;;5071789;28;20056;-38
2022/10/30 06:39:55;;;;;;;12.57;6.70;;;13.60;99.90;;;;;;5084259;28;20020;-40
2022/10/30 06:42:21;;;;;;;10.02;6.70;;;13.60;99.90;;;;;;5086088;28;20028;-41
2022/10/30 06:44:47;;;;;;;8.65;6.60;;;13.60;99.90;;;;;;5082861;28;20050;-39
2022/10/30 06:47:13;;;;;;;11.07;7.10;;;13.60;99.90;;;;;;5086582;28;20028;-39
2022/10/30 06:49:39;;;;;;;10.23;7.15;;;13.50;99.90;;;;;;5082899;28;20028;-40
2022/10/30 06:52:04;;;;;;;10.38;6.20;;;13.50;99.90;;;;;;5086889;28;20032;-40
2022/10/30 06:54:30;;;;;;;11.38;6.97;;;13.50;99.90;;;;;;5085664;28;20020;-40
2022/10/30 06:56:55;;;;;;;10.15;7.47;;;13.50;99.90;;;;;;5087584;28;20032;-38
2022/10/30 06:59:21;;;;;;;10.82;7.40;;;13.50;99.90;;;;;;5085556;28;20027;-40
2022/10/30 07:01:50;;;;;;;12.80;6.85;;;13.60;99.90;;;;;;5088222;28;20055;-38
2022/10/30 07:04:15;;;;;;;10.32;7.00;;;13.60;99.90;;;;;;5081520;28;20101;-40
2022/10/30 07:06:41;;;;;;;10.93;7.45;;;13.60;99.90;;;;;;5085170;28;20531;-38
2022/10/30 07:09:06;;;;;;;10.68;7.10;;;13.60;99.90;;;;;;5084526;28;20383;-40
2022/10/30 07:11:32;;;;;;;13.52;7.32;;;13.60;99.90;;;;;;5083021;28;20013;-43
2022/10/30 07:13:57;;;;;;;15.20;7.00;;;13.60;99.90;;;;;;5085253;28;20032;-40
2022/10/30 07:16:23;;;;;;;9.82;7.18;;;13.70;99.90;;;;;;5081057;28;20036;-41
2022/10/30 07:18:48;;;;;;;14.38;7.28;;;13.70;99.90;;;;;;5085485;28;20024;-41
2022/10/30 07:21:17;;;;;;;11.05;7.72;;;13.70;99.90;;;;;;5077488;28;20031;-38
2022/10/30 07:23:43;;;;;;;11.15;6.95;;;13.70;99.90;;;;;;5087282;28;20012;-40
2022/10/30 07:26:08;;;;;;;9.73;7.00;;;13.70;99.90;;;;;;5080189;28;20581;-38
2022/10/30 07:28:34;;;;;;;13.02;7.00;;;13.70;99.90;;;;;;5084400;28;20039;-43
2022/10/30 07:30:59;;;;;;;9.93;6.70;;;13.70;99.90;;;;;;5077325;28;20136;-37
2022/10/30 07:33:34;;;;;;;10.20;7.30;;;13.80;99.90;;;;;;5084352;28;20672;-41
2022/10/30 07:36:00;;;;;;;9.68;6.85;;;13.80;99.90;;;;;;5075826;28;20095;-38
2022/10/30 07:38:29;;;;;;;10.57;7.07;;;13.80;99.90;;;;;;5085312;28;20067;-38
2022/10/30 07:40:55;;;;;;;10.57;6.88;;;13.90;99.90;;;;;;5075911;28;20024;-35
2022/10/30 07:43:21;;;;;;;9.75;7.15;;;13.90;99.90;;;;;;5081100;28;20036;-39
2022/10/30 07:45:46;;;;;;;10.38;7.13;;;14.00;99.90;;;;;;5084131;28;20025;-37
2022/10/30 07:48:12;;;;;;;10.85;7.32;;;14.00;99.90;;;;;;5084255;28;20092;-35
2022/10/30 07:50:38;;;;;;;9.52;7.07;;;14.00;99.90;;;;;;5081087;28;20107;-36
2022/10/30 07:53:03;;;;;;;9.73;7.53;;;14.00;99.90;;;;;;5085297;28;20028;-40
2022/10/30 07:55:29;;;;;;;11.43;7.28;;;14.10;99.90;;;;;;5082986;28;20132;-39
2022/10/30 07:57:54;;;;;;;10.32;7.63;;;14.10;99.90;;;;;;5077784;28;20035;-34
2022/10/30 08:00:20;;;;;;;10.15;7.35;;;14.10;99.90;;;;;;5083747;28;20490;-40
2022/10/30 08:02:49;;;;;;;10.13;7.28;;;14.20;99.90;;;;;;5077572;28;20136;-39
2022/10/30 08:05:19;;;;;;;11.15;7.65;;;14.20;99.90;;;;;;5084669;28;20655;-39
2022/10/30 08:07:46;;;;;;;11.48;7.72;;;14.20;99.90;;;;;;5077112;28;20016;-39
2022/10/30 08:10:12;;;;;;;11.30;7.85;;;14.20;99.90;;;;;;5084234;28;20098;-39
2022/10/30 08:12:39;;;;;;;10.23;7.70;;;14.20;99.90;;;;;;5084155;28;20534;-39
2022/10/30 08:15:06;;;;;;;11.65;8.25;;;14.30;99.90;;;;;;5085889;28;20080;-38
2022/10/30 08:17:31;;;;;;;8.65;7.72;;;14.30;99.90;;;;;;5083508;28;20217;-41
2022/10/30 08:19:57;;;;;;;12.05;7.75;;;14.30;99.90;;;;;;5085440;28;20425;-40
2022/10/30 08:22:23;;;;;;;9.35;8.05;;;14.30;99.90;;;;;;5076804;28;20050;-41
2022/10/30 08:24:49;;;;;;;11.43;7.85;;;14.40;99.90;;;;;;5084305;28;20012;-41
2022/10/30 08:27:14;;;;;;;9.68;7.57;;;14.40;99.90;;;;;;5078083;28;20041;-40
2022/10/30 08:29:40;;;;;;;8.68;7.18;;;14.50;99.90;;;;;;5082324;28;20062;-39
2022/10/30 08:32:06;;;;;;;12.13;6.93;;;14.50;99.90;;;;;;5079690;28;20079;-40
2022/10/30 08:34:33;;;;;;;9.35;6.72;;;14.50;99.90;;;;;;5080400;28;20514;-38
2022/10/30 08:36:59;;;;;;;10.55;7.22;;;14.60;99.90;;;;;;5082160;28;20629;-39
2022/10/30 08:39:25;;;;;;;10.45;7.20;;;14.60;99.90;;;;;;5077236;28;20028;-40
2022/10/30 08:41:50;;;;;;;9.60;7.13;;;14.70;99.90;;;;;;5083687;28;20074;-39
2022/10/30 08:44:16;;;;;;;10.52;7.28;;;14.70;99.90;;;;;;5081927;28;20491;-39
2022/10/30 08:46:41;;;;;;;9.27;7.30;;;14.70;99.90;;;;;;5083015;28;20028;-40
2022/10/30 08:49:07;;;;;;;9.00;7.15;;;14.80;99.90;;;;;;5082371;28;20032;-39
2022/10/30 08:51:33;;;;;;;9.27;7.43;;;14.80;99.90;;;;;;5084363;28;20050;-40
2022/10/30 08:54:02;;;;;;;10.20;7.07;;;14.90;99.90;;;;;;5075928;28;20035;-39
2022/10/30 08:56:28;;;;;;;8.75;7.03;;;14.90;99.90;;;;;;5084152;28;20020;-40
2022/10/30 08:58:54;;;;;;;8.02;6.80;;;15.00;99.90;;;;;;5075171;28;20093;-39
2022/10/30 09:01:20;;;;;;;10.43;7.22;;;15.00;99.90;;;;;;5074748;28;20016;-40
2022/10/30 09:03:46;;;;;;;8.68;7.55;;;15.10;99.90;;;;;;5077075;28;20033;-39
2022/10/30 09:06:12;;;;;;;9.32;7.22;;;15.00;99.90;;;;;;5081836;28;20842;-39
2022/10/30 09:08:37;;;;;;;11.90;7.85;;;15.10;99.90;;;;;;5079035;28;20024;-39
2022/10/30 09:11:06;;;;;;;11.77;7.35;;;15.10;99.90;;;;;;5079559;28;20032;-39
2022/10/30 09:13:32;;;;;;;10.15;7.22;;;15.10;99.90;;;;;;5069855;28;20035;-34
2022/10/30 09:16:01;;;;;;;9.93;7.72;;;15.20;99.90;;;;;;5079410;28;20036;-39
2022/10/30 09:18:27;;;;;;;13.73;8.07;;;15.20;99.90;;;;;;5079356;28;20028;-41
2022/10/30 09:20:52;;;;;;;11.15;7.70;;;15.20;99.90;;;;;;5076289;28;20030;-40
2022/10/30 09:23:18;;;;;;;8.88;7.45;;;15.20;99.90;;;;;;5067288;28;20490;-38
2022/10/30 09:25:43;;;;;;;9.65;7.00;;;15.30;99.90;;;;;;5077631;28;20379;-40
2022/10/30 09:28:12;;;;;;;8.65;7.05;;;15.30;99.90;;;;;;5064779;28;20367;-40
2022/10/30 09:30:37;;;;;;;8.10;7.22;;;15.30;99.90;;;;;;5078569;28;20052;-43
2022/10/30 09:33:03;;;;;;;9.55;6.90;;;15.40;99.90;;;;;;5073622;28;20861;-38
2022/10/30 09:35:29;;;;;;;11.20;6.85;;;15.40;99.90;;;;;;5073315;28;20016;-39
2022/10/30 09:37:55;;;;;;;8.95;7.47;;;15.40;99.90;;;;;;5068167;28;20030;-39
2022/10/30 09:40:30;;;;;;;7.72;6.80;;;15.50;99.90;;;;;;5067866;28;20063;-40
2022/10/30 09:43:07;;;;;;;9.65;6.85;;;15.60;99.90;;;;;;5083348;28;20028;-40
2022/10/30 09:45:41;;;;;;;8.93;7.07;;;15.60;99.90;;;;;;5069167;28;20021;-38
2022/10/30 09:48:23;;;;;;;9.02;6.97;;;15.70;99.90;;;;;;5070337;28;20038;-39
2022/10/30 09:51:05;;;;;;;10.77;6.97;;;15.70;99.90;;;;;;5082578;28;20841;-39
2022/10/30 09:54:11;;;;;;;12.15;7.40;;;15.80;99.90;;;;;;5083546;28;20036;-38
2022/10/30 09:56:45;;;;;;;8.10;6.97;;;15.80;99.90;;;;;;5077924;28;20375;-39
2022/10/30 09:59:42;;;;;;;9.38;7.10;;;15.80;99.90;;;;;;5081532;28;20495;-38
2022/10/30 10:02:23;;;;;;;8.68;6.30;;;15.90;99.90;;;;;;5077394;28;20019;-39
2022/10/30 10:04:55;;;;;;;9.02;6.60;;;16.00;99.90;;;;;;5082233;28;20773;-38
2022/10/30 10:07:26;;;;;;;8.87;6.60;;;16.10;99.90;;;;;;5075168;28;20051;-39
2022/10/30 10:09:58;;;;;;;8.73;6.32;;;16.10;99.90;;;;;;5078356;28;20271;-39
2022/10/30 10:12:42;;;;;;;7.43;6.63;;;16.20;99.90;;;;;;5082540;28;20502;-39
2022/10/30 10:15:48;;;;;;;9.00;6.13;;;16.30;99.90;;;;;;5070008;28;20107;-40
2022/10/30 10:18:25;;;;;;;9.73;6.82;;;16.30;99.90;;;;;;5045508;28;20044;-41
2022/10/30 10:20:55;;;;;;;8.27;6.15;;;16.40;99.90;;;;;;5082222;28;20031;-38
2022/10/30 10:23:58;;;;;;;8.52;6.30;;;16.50;99.90;;;;;;5082870;28;20020;-40
2022/10/30 10:26:26;;;;;;;;;;;16.50;99.90;;;;;;5065592;28;20041;-38
2022/10/30 10:29:19;;;;;;;8.45;5.55;;;16.60;99.90;;;;;;5084436;28;20363;-38
2022/10/30 10:32:16;;;;;;;8.27;6.15;;;16.70;99.90;;;;;;5081921;28;20130;-40
2022/10/30 10:34:56;;;;;;;8.63;6.53;;;16.80;99.90;;;;;;5071027;28;20570;-40
2022/10/30 10:37:37;;;;;;;8.30;6.10;;;16.90;99.90;;;;;;5081340;28;20550;-39
2022/10/30 10:40:41;;;;;;;7.03;6.07;;;17.00;99.90;;;;;;5084295;28;20027;-38
2022/10/30 10:43:15;;;;;;;8.57;6.38;;;17.10;99.90;;;;;;5056171;28;20055;-39
2022/10/30 10:46:12;;;;;;;9.30;6.57;;;17.10;99.90;;;;;;5082989;28;20059;-38
2022/10/30 10:48:53;;;;;;;9.18;6.97;;;17.20;99.90;;;;;;5073870;28;20028;-35
2022/10/30 10:51:26;;;;;;;9.75;6.93;;;17.20;99.90;;;;;;5081235;28;20016;-38
2022/10/30 10:53:59;;;;;;;9.82;6.63;;;17.20;99.90;;;;;;5073303;28;20046;-40
2022/10/30 10:56:30;;;;;;;9.95;7.00;;;17.20;99.90;;;;;;5081827;28;20036;-37
2022/10/30 10:59:03;;;;;;;7.65;6.53;;;17.20;99.90;;;;;;5083400;28;20016;-39
2022/10/30 11:01:40;;;;;;;7.88;6.35;;;17.20;99.90;;;;;;5081962;28;20471;-39
2022/10/30 11:04:33;;;;;;;7.40;5.68;;;17.20;99.90;;;;;;5083903;28;20020;-38
2022/10/30 11:07:20;;;;;;;7.82;6.40;;;17.20;99.90;;;;;;5081780;28;20415;-36
2022/10/30 11:09:51;;;;;;;7.93;5.88;;;17.20;99.90;;;;;;5083602;28;20039;-39
2022/10/30 11:12:24;;;;;;;8.88;6.55;;;17.20;99.90;;;;;;5084515;28;20071;-38
2022/10/30 11:14:49;;;;;;;6.30;5.70;;;17.20;99.90;;;;;;5085256;28;20074;-40
2022/10/30 11:17:23;;;;;;;8.57;5.93;;;17.30;99.90;;;;;;5084357;28;20024;-38
2022/10/30 11:19:57;;;;;;;8.35;5.85;;;17.30;99.90;;;;;;5083487;28;20463;-39
2022/10/30 11:22:36;;;;;;;7.90;5.50;;;17.40;99.90;;;;;;5083517;28;20132;-37
2022/10/30 11:25:24;;;;;;;9.80;6.75;;;17.40;99.90;;;;;;5083077;28;20023;-40
2022/10/30 11:27:55;;;;;;;9.07;6.38;;;17.50;99.90;;;;;;5081554;28;20461;-39
2022/10/30 11:30:24;;;;;;;9.07;6.00;;;17.50;99.90;;;;;;5086102;28;20156;-38
2022/10/30 11:32:49;;;;;;;10.07;6.20;;;17.60;99.90;;;;;;5084177;28;20415;-39
2022/10/30 11:35:17;;;;;;;8.80;5.88;;;17.70;99.90;;;;;;5083342;28;20782;-37
2022/10/30 11:37:44;;;;;;;8.25;5.60;;;17.70;99.90;;;;;;5084929;28;20081;-41
2022/10/30 11:40:10;;;;;;;6.35;5.35;;;17.70;99.90;;;;;;5083707;28;20060;-41
2022/10/30 11:42:38;;;;;;;8.25;6.35;;;17.70;99.90;;;;;;5082977;28;20119;-41
2022/10/30 11:45:12;;;;;;;7.82;5.75;;;17.80;99.90;;;;;;5079893;28;20016;-36
2022/10/30 11:47:38;;;;;;;7.20;5.93;;;17.90;99.90;;;;;;5073937;28;20040;-40
2022/10/30 11:50:06;;;;;;;7.45;5.63;;;17.90;99.90;;;;;;5079681;28;20028;-40
2022/10/30 11:52:38;;;;;;;10.35;5.60;;;18.00;99.90;;;;;;5082996;28;20040;-40
2022/10/30 11:55:15;;;;;;;7.32;5.85;;;18.00;99.90;;;;;;5083597;28;20013;-40
2022/10/30 11:57:45;;;;;;;6.85;4.70;;;18.00;99.90;;;;;;5076313;28;20035;-36
2022/10/30 12:00:18;;;;;;;9.07;5.85;;;18.10;99.90;;;;;;5084266;28;20051;-38
2022/10/30 12:02:45;;;;;;;10.93;5.70;;;18.20;99.90;;;;;;5084810;28;20428;-39
2022/10/30 12:05:26;;;;;;;12.55;7.30;;;18.20;99.90;;;;;;5084845;28;20127;-38
2022/10/30 12:07:53;;;;;;;7.45;5.90;;;18.20;99.90;;;;;;5081256;28;20556;-39
2022/10/30 12:10:26;;;;;;;7.72;5.45;;;18.30;99.90;;;;;;5079068;28;20032;-39
2022/10/30 12:12:52;;;;;;;9.13;5.55;;;18.40;99.90;;;;;;5085294;28;20040;-39
2022/10/30 12:15:25;;;;;;;7.47;5.38;;;18.40;99.90;;;;;;5080550;28;20028;-41
2022/10/30 12:18:16;;;;;;;6.53;5.15;;;18.50;99.90;;;;;;5086150;28;20080;-38
2022/10/30 12:20:47;;;;;;;7.38;4.82;;;18.50;99.90;;;;;;5078380;28;20032;-39
2022/10/30 12:23:19;;;;;;;6.18;4.78;;;18.50;99.90;;;;;;5084468;28;20050;-40
2022/10/30 12:25:51;;;;;;;7.47;5.10;;;18.50;99.90;;;;;;5081041;28;20685;-40
2022/10/30 12:28:23;;;;;;;7.45;4.53;;;18.60;99.90;;;;;;5079336;28;20042;-38
2022/10/30 12:31:10;;;;;;;5.95;4.80;;;18.60;99.90;;;;;;5080574;28;20031;-40
2022/10/30 12:33:42;;;;;;;6.75;4.20;;;18.70;99.90;;;;;;5081308;28;20841;-39
2022/10/30 12:36:23;;;;;;;6.57;4.50;;;18.80;99.90;;;;;;5077550;28;20052;-37
2022/10/30 12:38:53;;;;;;;5.55;4.20;;;18.80;99.90;;;;;;5080251;28;20313;-38
2022/10/30 12:41:26;;;;;;;5.65;4.22;;;18.80;99.90;;;;;;5076541;28;20013;-38
2022/10/30 12:43:57;;;;;;;;;;;18.90;99.90;;;;;;5084147;28;20127;-36
2022/10/30 12:46:45;;;;;;;6.78;4.20;;;19.00;99.90;;;;;;5079749;28;20548;-39
2022/10/30 12:49:40;;;;;;;6.10;3.85;;;19.10;99.90;;;;;;5084481;28;20024;-37
2022/10/30 12:52:16;;;;;;;6.07;4.32;;;19.10;99.90;;;;;;5077414;28;20028;-40
2022/10/30 12:55:09;;;;;;;6.45;3.53;;;19.10;99.90;;;;;;5082983;28;20103;-42